CheckWX is a tool to help pilots better visualize weather data.  It is not intended as a substitute for an official pre-flight weather briefing.

03:15:37 UTC

EFOU METAR
Oulu Airport
Oulu / Oulunsalo, Finland
Current

26 mins ago

EFOU 180250Z AUTO 05005KT CAVOK 02/M00 Q1005
Observed
Sep-18 @ 02:50 UTC
Wind
  • 050° at 5 KTS
Visibility
10,000+ meters
Flight Rules
VFR
Cloud Levels
  • Clear skies
Temperature
C / 36°F
Dewpoint
C / 32°F
Humidity
87%
Altimeter
29.68" Hg
Pressure
1004.92 hPa
Previous

56 mins ago

EFOU 180220Z AUTO 05005KT CAVOK 02/00 Q1005
Observed
Sep-18 @ 02:20 UTC
Wind
  • 050° at 5 KTS
Visibility
10,000+ meters
Flight Rules
VFR
Cloud Levels
  • Clear skies
Temperature
C / 36°F
Dewpoint
C / 32°F
Humidity
87%
Altimeter
29.68" Hg
Pressure
1004.92 hPa
Previous

1 hour ago

EFOU 180150Z AUTO 05004KT CAVOK 02/00 Q1005
Observed
Sep-18 @ 01:50 UTC
Wind
  • 050° at 4 KTS
Visibility
10,000+ meters
Flight Rules
VFR
Cloud Levels
  • Clear skies
Temperature
C / 36°F
Dewpoint
C / 32°F
Humidity
87%
Altimeter
29.68" Hg
Pressure
1004.92 hPa